Latest Coastal Weather Observations for Darwin Airport

IDD60701

Issued at 11:51 am CST Saturday 3 December 2016 (issued every 10 minutes, with the page automatically refreshed every 10 minutes)

About coastal observations | Map of coastal stations | Coastal observations for NT | Marine services | Other Formats
Station Details ID: 014015 Name: DARWIN AIRPORT Lat: -12.42 Lon: 130.89 Height: 30.4 m
Data from the previous 72 hours. | See also: Recent months at Darwin Airport
Date/Time
CST
Temp
°C
Wind Pressure Rain since
9am
mm
Weather Cloud Vis
km
Sea
Height
m
Swell
Dir  Spd
kts
Gust
kts
hPa Trend Height
m
Period
s
Dir
03/11:30am 31.7 NE 7 12 1010.3 - 0.0 - Mostly clear 10 - - - -
03/11:00am 31.3 NNE 7 11 1010.3 - 0.0 - Mostly clear 10 - - - -
03/10:30am 31.0 N 6 8 1010.6 - 0.0 - Mostly clear 10 - - - -
03/10:00am 30.2 NNE 5 7 1011.0 - 0.0 - Mostly clear 10 - - - -
03/09:30am 29.7 ENE 4 8 1011.2 - 0.0 - Partly cloudy 10 - - - -
03/09:00am 29.4 ESE 6 8 1010.6 R 9.0 Recent precip. Mostly cloudy 30 - - - -
03/08:30am 28.6 E 9 10 1010.4 - - - Mostly clear 10 - - - -
03/08:00am 28.1 ESE 5 6 1010.2 - - - Mostly clear 10 - - - -
03/07:30am 27.8 ENE 3 4 1009.9 - - - Mostly clear 10 - - - -
03/07:00am 26.8 ENE 3 4 1009.3 - - - Mostly clear 10 - - - -
03/06:30am 26.3 ENE 3 5 1009.1 - - - Mostly clear 10 - - - -
03/06:00am 26.2 NE 4 6 1008.3 F - Fine Partly cloudy 30 - - - -
03/05:30am 26.4 NE 4 6 1008.3 - 0.0 - Mostly clear 10 - - - -
03/05:00am 27.1 E 5 8 1008.6 - - - - 10 - - - -
03/04:30am 26.8 NNE 2 4 1008.2 - - - - 10 - - - -
03/04:00am 27.4 NNE 4 6 1008.1 - - - - 10 - - - -
03/03:30am 27.2 NNE 4 6 1007.9 - - - - 10 - - - -
03/03:00am 27.3 NNE 4 5 1008.2 R 0.0 - - 10 - - - -
03/02:30am 27.5 NNE 4 5 1008.2 - - - Partly cloudy 10 - - - -
03/02:00am 27.6 NNE 4 5 1008.4 - 8.6 - Mostly clear 10 - - - -
03/01:30am 27.7 NNE 4 6 1008.7 - 8.6 - Mostly clear 10 - - - -
03/01:00am 28.0 NNE 5 6 1009.0 - 8.6 - Mostly clear 10 - - - -
03/12:30am 28.4 NNE 7 9 1009.2 - 8.6 - Mostly clear 10 - - - -
03/12:00am 28.7 N 7 11 1009.1 F 8.6 Fine Partly cloudy 30 - - - -
 
Date/Time
CST
Temp
°C
Wind Pressure Rain since
9am
mm
Weather Cloud Vis
km
Sea
Height
m
Swell
Dir  Spd
kts
Gust
kts
hPa Trend Height
m
Period
s
Dir
02/11:30pm 28.7 N 8 10 1008.9 - 8.6 - Mostly clear 10 - - - -
02/11:00pm 29.0 N 10 13 1009.2 - 8.6 - - 10 - - - -
02/10:30pm 28.9 N 9 14 1009.3 - 8.6 - - 10 - - - -
02/10:00pm 28.8 N 7 9 1009.3 - 8.6 - - 10 - - - -
02/09:30pm 28.7 N 7 9 1009.1 - 8.6 - - 10 - - - -
02/09:00pm 29.0 N 7 9 1008.8 R 8.6 Fine Mostly cloudy 30 - - - -
02/08:30pm 29.2 NNE 7 11 1008.4 - 8.6 - Mostly clear 10 - - - -
02/08:00pm 29.0 NNE 9 11 1007.9 - - - Mostly clear 10 - - - -
02/07:30pm 29.1 NNE 8 11 1007.4 - 8.6 - Mostly clear 10 - - - -
02/07:00pm 29.0 NE 6 7 1007.0 - 8.6 - Mostly clear 10 - - - -
02/06:30pm 29.5 NE 5 7 1006.7 - 8.6 - Mostly clear 10 - - - -
02/06:00pm 29.8 ENE 5 6 1006.5 F 8.2 Fine Mostly cloudy 30 - - - -
02/05:30pm 28.8 SE 4 6 1006.2 - 8.6 - Mostly clear 10 - - - -
02/05:15pm 28.0 SE 9 13 1006.2 - 8.4 Showers Mostly clear 10 - - - -
02/05:09pm 27.3 SE 11 13 1006.4 - 7.8 Showers Mostly clear 7 - - - -
02/05:00pm 28.0 WNW 4 12 1006.5 - 5.4 Showers Mostly clear 5 - - - -
02/04:54pm 28.5 NW 4 6 1006.5 - 3.6 Showers Mostly clear 7 - - - -
02/04:46pm 30.2 NW 5 8 1006.3 - - Showers Mostly clear 5 - - - -
02/04:41pm 32.7 NW 6 8 1006.3 - 0.0 Showers Mostly clear 10 - - - -
02/04:30pm 33.2 NNW 6 8 1006.2 - 0.0 - Mostly clear 10 - - - -
02/04:00pm 33.7 WNW 8 11 1006.6 - 0.0 - Mostly clear 10 - - - -
02/03:30pm 32.8 NNW 7 9 1006.8 - 0.0 - Mostly clear 10 - - - -
02/03:00pm 33.9 N 7 9 1006.8 F 0.0 Fine Mostly cloudy 30 - - - -
02/02:30pm 33.7 NNE 4 10 1007.0 - 0.0 - Mostly clear 10 - - - -
02/02:00pm 33.7 N 3 7 1007.2 - 0.0 - Mostly clear 10 - - - -
02/01:30pm 33.5 NNE 6 10 1007.6 - 0.0 - Mostly clear 10 - - - -
02/01:00pm 32.6 NNE 6 11 1008.1 - 0.0 - Mostly clear 10 - - - -
02/12:30pm 32.7 NNE 6 10 1008.4 - 0.0 - Mostly clear 10 - - - -
02/12:00pm 32.3 NNE 8 11 1009.0 R 0.0 Fine Partly cloudy 30 - - - -
02/11:30am 31.2 NNE 6 11 1009.6 - 0.0 - Mostly clear 10 - - - -
02/11:00am 31.5 NNE 5 10 1009.9 - 0.0 - Mostly clear 10 - - - -
02/10:00am 30.6 ENE 7 14 1010.2 - 0.0 - Mostly clear 10 - - - -
02/09:30am 29.8 ENE 7 11 1009.7 - 0.0 - Mostly clear 10 - - - -
02/09:00am 28.8 ENE 11 13 1009.6 F 0.0 Fine Partly cloudy 30 - - - -
02/08:30am 28.0 ENE 8 11 1009.6 - 0.0 - - 10 - - - -
02/08:00am 27.0 ENE 8 10 1009.5 - 0.0 - Mostly clear 10 - - - -
02/07:30am 26.0 E 11 15 1009.8 - 0.0 - Mostly clear 10 - - - -
02/07:00am 25.5 E 12 15 1009.5 - 0.0 - - 10 - - - -
02/06:30am 25.6 E 9 11 1009.4 - 0.0 - Mostly clear 10 - - - -
02/06:00am 25.7 ESE 9 12 1009.3 R 0.0 Fine Partly cloudy 30 - - - -
02/05:30am 25.8 SE 11 16 1008.7 - 0.0 - Mostly clear 10 - - - -
02/05:00am 25.9 SE 9 13 1008.2 - 0.0 - - 10 - - - -
02/04:30am 25.8 SE 9 11 1007.8 - 0.0 - - 10 - - - -
02/04:00am 25.8 SE 9 12 1007.8 - 0.0 - - 10 - - - -
02/03:30am 25.8 SE 6 8 1007.5 - 0.0 - - 10 - - - -
02/03:00am 26.0 SSE 5 7 1007.7 F 0.0 - - 10 - - - -
02/02:30am 26.4 SSE 9 11 1008.1 - 0.0 - - 10 - - - -
02/02:00am 26.8 SSE 7 10 1007.9 - 0.0 - Mostly clear 10 - - - -
02/01:30am 27.1 CALM 0 1 1008.0 - 0.0 - Mostly clear 10 - - - -
02/01:00am 26.9 CALM 0 0 1008.2 - 0.0 - - 10 - - - -
02/12:30am 27.0 NE 1 2 1008.7 - 0.0 - Mostly clear 10 - - - -
02/12:00am 27.3 E 2 2 1009.3 R 0.0 Fine Mostly cloudy 30 - - - -
 
Date/Time
CST
Temp
°C
Wind Pressure Rain since
9am
mm
Weather Cloud Vis
km
Sea
Height
m
Swell
Dir  Spd
kts
Gust
kts
hPa Trend Height
m
Period
s
Dir
01/11:30pm 27.2 N 2 3 1008.9 - 0.0 - - 10 - - - -
01/11:00pm 27.7 NW 3 4 1008.7 - 0.0 - - 10 - - - -
01/10:30pm 27.4 CALM 0 0 1008.7 - 0.0 - - 10 - - - -
01/10:00pm 27.6 NNW 4 5 1008.1 - 0.0 - - 10 - - - -
01/09:30pm 27.5 N 3 4 1007.3 - 0.0 - - 10 - - - -
01/09:00pm 28.0 N 2 3 1007.1 R 0.0 Fine Mostly cloudy 30 - - - -
01/08:30pm 28.2 SSE 2 4 1007.0 - 0.0 - Mostly clear 10 - - - -
01/08:00pm 28.5 S 6 11 1007.0 - 0.0 - Mostly clear 10 - - - -
01/07:30pm 30.6 SW 4 4 1006.8 - 0.0 - Mostly clear 10 - - - -
01/07:00pm 30.9 WNW 2 3 1006.4 - 0.0 - Mostly clear 10 - - - -
01/06:30pm 31.6 NW 3 5 1005.8 - 0.0 - Mostly clear 10 - - - -
01/06:00pm 31.9 NW 6 7 1005.2 F 0.0 Fine Mostly cloudy 30 - - - -
01/05:30pm 32.3 NW 6 8 1005.0 - 0.0 - Mostly clear 10 - - - -
01/05:00pm 33.0 WNW 6 8 1004.7 - 0.0 - Mostly clear 10 - - - -
01/04:30pm 32.4 WNW 8 10 1004.7 - 0.0 - Mostly clear 10 - - - -
01/04:00pm 32.9 WNW 11 14 1005.1 - 0.0 - Mostly clear 10 - - - -
01/03:30pm 33.1 WNW 11 14 1005.8 - 0.0 - Mostly clear 10 - - - -
01/03:00pm 33.3 WNW 11 13 1006.2 F 0.0 Fine Mostly cloudy 30 - - - -
01/02:30pm 32.8 WNW 10 13 1006.7 - 0.0 - Mostly clear 10 - - - -
01/02:00pm 32.8 NW 11 14 1006.7 - 0.0 - Mostly clear 10 - - - -
01/01:30pm 32.8 WNW 9 12 1006.7 - 0.0 - Mostly clear 10 - - - -
01/01:00pm 32.7 WNW 10 13 1007.1 - 0.0 - Mostly clear 10 - - - -
01/12:30pm 32.2 NW 8 11 1007.6 - 0.0 - Mostly clear 10 - - - -
01/12:00pm 32.3 WNW 6 11 1008.2 F 0.0 Fine Mostly cloudy 30 - - - -
01/11:30am 31.6 NNW 6 9 1008.5 - 0.0 - Mostly clear 10 - - - -
01/11:00am 31.1 NNW 6 10 1009.0 - 0.0 - Mostly clear 10 - - - -
01/10:30am 29.9 N 3 5 1009.3 - 0.0 - Mostly clear 10 - - - -
01/10:00am 28.8 NNE 4 5 1009.6 - 0.0 - Mostly clear 10 - - - -
01/09:30am 28.6 ENE 5 6 1009.1 - 0.0 - Mostly clear 10 - - - -
01/09:00am 27.6 E 5 7 1009.5 R 0.0 Fine Mostly cloudy 30 - - - -
01/08:30am 26.0 ESE 4 5 1009.3 - 0.0 - Mostly clear 10 - - - -
01/08:00am 25.8 ENE 4 6 1009.0 - 0.0 - Mostly clear 10 - - - -
01/07:30am 25.7 ESE 6 8 1009.1 - 0.0 - Mostly clear 10 - - - -
01/07:00am 25.8 SE 5 7 1008.9 - 0.0 - Mostly clear 10 - - - -
01/06:30am 25.7 E 5 6 1008.4 - 0.0 - Mostly clear 10 - - - -
01/06:00am 25.5 E 5 5 1007.6 F 0.0 Lightning Partly cloudy 30 - - - -
01/05:30am 25.8 ENE 3 4 1007.9 - 0.0 - Mostly clear 10 - - - -
01/05:00am 26.7 E 5 6 1008.1 - 0.0 - Partly cloudy 10 - - - -
01/04:30am 26.9 E 7 7 1008.0 - 0.0 - Partly cloudy 10 - - - -
01/04:00am 26.9 ESE 6 8 1008.1 - 0.0 - - 10 - - - -
01/03:30am 27.1 N 4 5 1007.4 - 0.0 - - 10 - - - -
01/03:00am 27.4 NNE 4 6 1007.2 F 0.0 - - 10 - - - -
01/02:30am 27.8 N 7 8 1007.2 - 0.0 - - 10 - - - -
01/02:00am 27.5 N 6 8 1007.6 - 0.0 - Mostly clear 10 - - - -
01/01:30am 27.6 N 6 8 1007.9 - 0.0 - - 10 - - - -
01/01:00am 27.7 NNE 9 13 1008.0 - 0.0 - - 10 - - - -
01/12:30am 28.7 N 11 16 1008.6 - 0.0 - Mostly clear 10 - - - -
01/12:00am 29.7 NNE 11 16 1008.9 R 0.0 Fine Mostly cloudy 30 - - - -
 
Date/Time
CST
Temp
°C
Wind Pressure Rain since
9am
mm
Weather Cloud Vis
km
Sea
Height
m
Swell
Dir  Spd
kts
Gust
kts
hPa Trend Height
m
Period
s
Dir
30/11:30pm 29.9 N 8 10 1009.0 - 0.0 - Partly cloudy 10 - - - -
30/11:00pm 30.1 NNW 5 7 1008.7 - 0.0 - Mostly clear 10 - - - -
30/10:30pm 28.7 NW 7 10 1008.2 - 0.0 - Mostly clear 10 - - - -
30/10:00pm 29.4 WSW 3 5 1008.1 - 0.0 - Mostly clear 10 - - - -
30/09:30pm 29.9 WNW 5 6 1007.9 - 0.0 - Mostly clear 10 - - - -
30/09:00pm 30.3 W 6 8 1008.0 R 0.0 Lightning Partly cloudy 30 - - - -
30/08:30pm 30.4 WSW 7 8 1008.1 - 0.0 - Mostly clear 10 - - - -
30/08:00pm 30.5 W 5 7 1007.8 - 0.0 - Mostly clear 10 - - - -
30/07:30pm 30.7 WNW 7 10 1007.1 - 0.0 - Partly cloudy 10 - - - -
30/07:00pm 30.8 WNW 9 11 1006.4 - 0.0 - Mostly clear 10 - - - -
30/06:30pm 31.4 WNW 11 14 1005.8 - 0.0 - Mostly clear 10 - - - -
30/06:00pm 31.7 WNW 12 16 1005.3 F 0.0 Fine Mostly cloudy 30 - - - -
30/05:30pm 32.3 WNW 11 14 1005.8 - 0.0 - Mostly clear 10 - - - -
30/05:00pm 32.8 WNW 13 16 1005.4 - 0.0 - Mostly clear 10 - - - -
30/04:30pm 32.1 WNW 14 17 1005.3 - 0.0 - Mostly clear 10 - - - -
30/04:00pm 32.6 WNW 13 17 1005.7 - 0.0 - Mostly clear 10 - - - -
30/03:30pm 32.8 WNW 14 17 1005.7 - 0.0 - Mostly clear 10 - - - -
30/03:00pm 32.7 WNW 14 17 1006.0 S 0.0 Fine Mostly clear 30 - - - -
30/02:30pm 33.0 WNW 13 16 1006.4 - 0.0 - Mostly clear 10 - - - -
30/02:00pm 33.2 WNW 12 16 1006.9 - 0.0 - Mostly clear 10 - - - -
30/01:30pm 33.2 WNW 11 15 1007.1 - 0.0 - Mostly clear 10 - - - -
30/01:00pm 33.0 WNW 12 14 1007.5 - 0.0 - Mostly clear 10 - - - -
30/12:30pm 33.0 NW 11 15 1008.0 - 0.0 - Mostly clear 10 - - - -
30/12:00pm 32.9 WNW 8 12 1008.3 S 0.0 Fine Mostly clear 30 - - - -

Other Formats:

Comma delimited format used in spreadsheet applications
http://www.bom.gov.au/fwo/IDD60701/IDD60701.94120.axf

JavaScript Object Notation format (JSON) in row-major order
http://www.bom.gov.au/fwo/IDD60701/IDD60701.94120.json